createdAt,value
2019-04-20T00:01:40.865Z,7.40
2019-04-20T00:04:17.059Z,7.40
2019-04-20T00:06:47.994Z,7.30
2019-04-20T00:09:17.142Z,7.30
2019-04-20T00:11:53.289Z,7.30
2019-04-20T00:14:17.543Z,7.20
2019-04-20T00:16:42.305Z,7.00
2019-04-20T00:19:15.287Z,6.90
2019-04-20T00:21:52.002Z,6.90
2019-04-20T00:24:21.102Z,6.80
2019-04-20T00:27:10.633Z,6.80
2019-04-20T00:29:36.737Z,6.80
2019-04-20T00:31:59.140Z,6.90
2019-04-20T00:34:23.068Z,6.90
2019-04-20T00:36:47.459Z,7.00
2019-04-20T00:39:18.163Z,7.10
2019-04-20T00:41:52.092Z,6.90
2019-04-20T00:44:23.325Z,6.80
2019-04-20T00:47:04.868Z,6.80
2019-04-20T00:49:33.366Z,6.70
2019-04-20T00:52:13.443Z,6.80
2019-04-20T00:54:18.204Z,6.70
2019-04-20T00:56:47.808Z,6.60
2019-04-20T00:59:30.531Z,6.60
2019-04-20T01:02:06.380Z,6.60
2019-04-20T01:04:38.419Z,6.50
2019-04-20T01:07:04.600Z,6.50
2019-04-20T01:09:29.434Z,6.40
2019-04-20T01:11:58.596Z,6.40
2019-04-20T01:14:35.826Z,6.30
2019-04-20T01:17:07.043Z,6.30
2019-04-20T01:19:27.707Z,6.10
2019-04-20T01:22:03.693Z,5.90
2019-04-20T01:24:31.370Z,5.80
2019-04-20T01:27:00.827Z,5.70
2019-04-20T01:29:38.350Z,5.70
2019-04-20T01:32:10.498Z,5.70
2019-04-20T01:34:41.437Z,5.70
2019-04-20T01:37:13.637Z,5.70
2019-04-20T01:39:35.298Z,5.60
2019-04-20T01:41:58.283Z,5.60
2019-04-20T01:44:35.391Z,5.60
2019-04-20T01:47:01.186Z,5.70
2019-04-20T01:49:31.659Z,5.70
2019-04-20T01:52:09.708Z,5.60
2019-04-20T01:54:48.455Z,5.50
2019-04-20T01:57:08.106Z,5.30
2019-04-20T01:59:47.015Z,5.20
2019-04-20T02:02:16.607Z,5.10
2019-04-20T02:04:48.273Z,5.10
2019-04-20T02:07:18.454Z,5.10
2019-04-20T02:09:51.320Z,5.10
2019-04-20T02:12:20.300Z,5.00
2019-04-20T02:14:51.759Z,4.90
2019-04-20T02:17:26.055Z,4.80
2019-04-20T02:20:05.472Z,4.80
2019-04-20T02:22:40.799Z,4.70
2019-04-20T02:24:46.798Z,4.60
2019-04-20T02:27:20.564Z,4.50
2019-04-20T02:30:13.412Z,4.50
2019-04-20T02:33:01.607Z,4.50
2019-04-20T02:35:48.159Z,4.50
2019-04-20T02:38:18.217Z,4.50
2019-04-20T02:40:47.429Z,4.40
2019-04-20T02:45:52.872Z,4.30
2019-04-20T02:48:08.351Z,4.30
2019-04-20T02:50:44.199Z,4.20
2019-04-20T02:53:30.157Z,4.20
2019-04-20T02:58:14.965Z,4.20
2019-04-20T03:00:35.605Z,4.20
2019-04-20T03:02:53.322Z,4.20
2019-04-20T03:05:28.088Z,4.20
2019-04-20T03:08:04.560Z,4.20
2019-04-20T03:10:44.537Z,4.10
2019-04-20T03:13:08.041Z,4.00
2019-04-20T03:15:40.547Z,3.90
2019-04-20T03:18:08.824Z,3.90
2019-04-20T03:20:39.024Z,3.90
2019-04-20T03:23:26.847Z,3.90
2019-04-20T03:25:55.703Z,3.80
2019-04-20T03:28:22.224Z,3.70
2019-04-20T03:31:33.316Z,3.60
2019-04-20T03:33:44.717Z,3.50
2019-04-20T03:36:09.297Z,3.40
2019-04-20T03:38:24.878Z,3.50
2019-04-20T03:40:45.206Z,3.60
2019-04-20T03:43:05.628Z,3.50
2019-04-20T03:45:41.674Z,3.50
2019-04-20T03:48:16.089Z,3.60
2019-04-20T03:50:55.002Z,3.60
2019-04-20T03:53:39.452Z,3.40
2019-04-20T03:56:11.696Z,3.40
2019-04-20T03:58:39.066Z,3.40
2019-04-20T04:01:22.708Z,3.50
2019-04-20T04:03:53.250Z,3.50
2019-04-20T04:06:16.234Z,3.40
2019-04-20T04:08:42.905Z,3.20
2019-04-20T04:11:24.428Z,3.20
2019-04-20T04:13:35.998Z,3.20
2019-04-20T04:16:08.800Z,3.20
2019-04-20T04:18:39.451Z,3.10
2019-04-20T04:21:10.056Z,3.10
2019-04-20T04:23:49.082Z,3.10
2019-04-20T04:26:21.945Z,3.00
2019-04-20T04:28:53.449Z,3.00
2019-04-20T04:31:28.056Z,3.00
2019-04-20T04:34:07.914Z,3.00
2019-04-20T04:36:24.467Z,3.00
2019-04-20T04:38:57.167Z,3.00
2019-04-20T04:41:26.841Z,3.10
2019-04-20T04:43:54.260Z,3.10
2019-04-20T04:46:08.270Z,3.10
2019-04-20T04:48:41.187Z,3.10
2019-04-20T04:51:13.958Z,3.10
2019-04-20T04:53:47.599Z,3.10
2019-04-20T04:56:14.137Z,3.00
2019-04-20T04:58:38.434Z,3.00
2019-04-20T05:01:13.904Z,3.10
2019-04-20T05:04:04.852Z,3.10
2019-04-20T05:06:26.402Z,3.20
2019-04-20T05:08:45.428Z,3.40
2019-04-20T05:11:10.944Z,3.60
2019-04-20T05:13:47.861Z,3.70
2019-04-20T05:16:27.866Z,3.80
2019-04-20T05:19:01.975Z,3.90
2019-04-20T05:21:29.853Z,3.90
2019-04-20T05:23:59.115Z,4.00
2019-04-20T05:26:35.889Z,4.10
2019-04-20T05:28:55.591Z,4.20
2019-04-20T05:31:18.584Z,4.30
2019-04-20T05:34:08.487Z,4.50
2019-04-20T05:36:40.507Z,4.60
2019-04-20T05:39:14.473Z,4.70
2019-04-20T05:41:38.660Z,4.80
2019-04-20T05:44:04.691Z,4.90
2019-04-20T05:46:42.473Z,5.10
2019-04-20T05:49:17.678Z,5.20
2019-04-20T05:51:40.953Z,5.40
2019-04-20T05:54:17.805Z,5.60
2019-04-20T05:57:00.007Z,5.80
2019-04-20T05:59:13.891Z,6.10
2019-04-20T06:01:49.534Z,6.20
2019-04-20T06:04:11.599Z,6.40
2019-04-20T06:06:45.195Z,6.70
2019-04-20T06:09:15.654Z,7.00
2019-04-20T06:11:56.247Z,7.20
2019-04-20T06:14:20.577Z,7.50
2019-04-20T06:17:02.907Z,7.70
2019-04-20T06:19:36.964Z,8.10
2019-04-20T06:22:14.918Z,8.50
2019-04-20T06:24:49.848Z,8.90
2019-04-20T06:27:10.339Z,9.50
2019-04-20T06:29:37.998Z,10.00
2019-04-20T06:32:17.521Z,10.50
2019-04-20T06:34:40.107Z,10.80
2019-04-20T06:37:09.972Z,11.20
2019-04-20T06:39:44.813Z,11.50
2019-04-20T06:47:27.246Z,12.50
2019-04-20T06:49:56.671Z,12.80
2019-04-20T06:54:56.530Z,13.50
2019-04-20T06:57:30.238Z,13.70
2019-04-20T07:02:32.452Z,14.50
2019-04-20T07:04:57.647Z,14.70
2019-04-20T07:07:48.018Z,15.10
2019-04-20T07:10:08.723Z,15.20
2019-04-20T07:12:31.184Z,15.30
2019-04-20T07:14:46.954Z,15.20
2019-04-20T07:17:39.386Z,15.20
2019-04-20T07:20:00.326Z,15.40
2019-04-20T07:25:09.522Z,15.60
2019-04-20T07:27:35.513Z,15.70
2019-04-20T07:30:07.387Z,15.80
2019-04-20T07:32:46.136Z,16.00
2019-04-20T07:35:08.707Z,16.10
2019-04-20T07:38:12.379Z,16.30
2019-04-20T07:40:17.657Z,16.20
2019-04-20T07:42:46.994Z,16.30
2019-04-20T07:45:14.861Z,16.30
2019-04-20T07:47:59.547Z,16.50
2019-04-20T07:50:09.018Z,16.70
2019-04-20T07:52:35.197Z,16.80
2019-04-20T07:57:39.147Z,17.20
2019-04-20T08:00:13.718Z,17.30
2019-04-20T08:02:54.574Z,17.40
2019-04-20T08:05:15.599Z,17.50
2019-04-20T08:07:45.699Z,17.70
2019-04-20T08:10:11.451Z,17.70
2019-04-20T08:13:06.750Z,17.70
2019-04-20T08:15:42.731Z,17.70
2019-04-20T08:18:13.597Z,17.80
2019-04-20T08:20:25.764Z,18.00
2019-04-20T08:23:01.840Z,18.30
2019-04-20T08:25:23.533Z,18.50
2019-04-20T08:27:54.957Z,18.60
2019-04-20T08:31:00.610Z,18.70
2019-04-20T08:33:34.866Z,18.50
2019-04-20T08:36:04.984Z,18.50
2019-04-20T08:38:58.271Z,18.70
2019-04-20T08:41:03.320Z,18.90
2019-04-20T08:43:53.945Z,19.00
2019-04-20T08:46:06.626Z,19.30
2019-04-20T08:48:40.880Z,19.50
2019-04-20T08:51:07.441Z,19.70
2019-04-20T08:53:36.862Z,19.70
2019-04-20T08:55:59.096Z,19.80
2019-04-20T08:58:18.061Z,19.80
2019-04-20T09:00:53.609Z,20.00
2019-04-20T09:03:24.714Z,20.00
2019-04-20T09:05:59.557Z,20.10
2019-04-20T09:08:24.882Z,20.30
2019-04-20T09:11:07.091Z,20.50
2019-04-20T09:13:28.338Z,20.50
2019-04-20T09:15:49.485Z,20.80
2019-04-20T09:18:30.360Z,20.50
2019-04-20T09:21:02.411Z,20.60
2019-04-20T09:23:43.666Z,20.70
2019-04-20T09:26:16.288Z,20.80
2019-04-20T09:28:40.535Z,20.80
2019-04-20T09:31:22.710Z,20.90
2019-04-20T09:34:06.466Z,20.90
2019-04-20T09:36:51.426Z,21.00
2019-04-20T09:39:35.171Z,21.10
2019-04-20T09:42:01.227Z,21.30
2019-04-20T09:44:31.423Z,21.50
2019-04-20T09:47:01.695Z,21.50
2019-04-20T09:49:42.567Z,21.60
2019-04-20T09:52:15.250Z,21.80
2019-04-20T09:54:45.317Z,21.90
2019-04-20T09:57:19.141Z,22.00
2019-04-20T09:59:50.062Z,21.90
2019-04-20T10:02:07.709Z,22.10
2019-04-20T10:04:31.681Z,22.40
2019-04-20T10:07:07.895Z,22.60
2019-04-20T10:09:34.463Z,22.90
2019-04-20T10:12:01.669Z,22.90
2019-04-20T10:14:31.025Z,22.80
2019-04-20T10:17:00.072Z,22.40
2019-04-20T10:19:32.462Z,22.00
2019-04-20T10:22:00.261Z,22.10
2019-04-20T10:24:28.879Z,22.30
2019-04-20T10:26:58.652Z,22.60
2019-04-20T10:29:27.920Z,22.80
2019-04-20T10:32:00.136Z,22.90
2019-04-20T10:34:26.912Z,23.00
2019-04-20T10:36:57.557Z,23.10
2019-04-20T10:39:28.739Z,23.20
2019-04-20T10:42:01.755Z,23.40
2019-04-20T10:44:29.299Z,23.50
2019-04-20T10:46:58.825Z,23.60
2019-04-20T10:49:27.449Z,23.20
2019-04-20T10:51:56.126Z,23.00
2019-04-20T10:54:24.816Z,22.70
2019-04-20T10:56:53.468Z,22.70
2019-04-20T10:59:23.452Z,22.90
2019-04-20T11:01:52.197Z,23.00
2019-04-20T11:04:20.932Z,23.40
2019-04-20T11:06:50.317Z,23.70
2019-04-20T11:09:19.080Z,23.20
2019-04-20T11:11:48.287Z,22.80
2019-04-20T11:14:25.796Z,22.60
2019-04-20T11:16:48.440Z,22.60
2019-04-20T11:19:17.165Z,22.80
2019-04-20T11:21:46.326Z,23.00
2019-04-20T11:24:16.279Z,22.90
2019-04-20T11:26:45.576Z,22.80
2019-04-20T11:29:16.083Z,22.80
2019-04-20T11:31:50.580Z,23.00
2019-04-20T11:34:23.552Z,23.00
2019-04-20T11:36:45.588Z,23.30
2019-04-20T11:39:14.737Z,23.20
2019-04-20T11:41:43.668Z,23.20
2019-04-20T11:44:13.658Z,23.30
2019-04-20T11:46:42.920Z,23.40
2019-04-20T11:49:11.674Z,23.60
2019-04-20T11:51:41.355Z,23.60
2019-04-20T11:54:10.459Z,23.70
2019-04-20T11:56:43.503Z,23.60
2019-04-20T11:59:09.609Z,23.40
2019-04-20T12:01:51.957Z,23.40
2019-04-20T12:04:30.447Z,23.70
2019-04-20T12:06:48.748Z,23.90
2019-04-20T12:09:17.336Z,23.50
2019-04-20T12:11:59.646Z,23.30
2019-04-20T12:14:16.705Z,23.30
2019-04-20T12:16:45.862Z,23.50
2019-04-20T12:19:14.730Z,23.90
2019-04-20T12:21:43.395Z,23.70
2019-04-20T12:24:12.266Z,23.80
2019-04-20T12:26:41.007Z,23.50
2019-04-20T12:29:09.963Z,23.30
2019-04-20T12:31:39.675Z,23.30
2019-04-20T12:34:08.654Z,23.30
2019-04-20T12:36:37.373Z,23.20
2019-04-20T12:39:09.397Z,23.40
2019-04-20T12:41:46.272Z,23.60
2019-04-20T12:44:09.675Z,23.80
2019-04-20T12:46:38.629Z,23.60
2019-04-20T12:49:07.690Z,23.60
2019-04-20T12:51:47.468Z,23.70
2019-04-20T12:54:06.792Z,23.70
2019-04-20T12:56:35.300Z,23.60
2019-04-20T12:59:05.379Z,23.40
2019-04-20T13:01:35.335Z,23.40
2019-04-20T13:04:06.143Z,23.30
2019-04-20T13:06:37.151Z,23.50
2019-04-20T13:09:10.547Z,23.80
2019-04-20T13:11:50.711Z,24.00
2019-04-20T13:14:46.535Z,23.80
2019-04-20T13:17:16.538Z,23.30
2019-04-20T13:19:45.341Z,23.30
2019-04-20T13:22:14.829Z,23.50
2019-04-20T13:24:43.566Z,23.70
2019-04-20T13:27:14.181Z,23.60
2019-04-20T13:29:43.090Z,23.40
2019-04-20T13:32:13.844Z,23.30
2019-04-20T13:34:42.499Z,23.70
2019-04-20T13:37:11.116Z,23.80
2019-04-20T13:39:40.781Z,23.60
2019-04-20T13:42:15.849Z,23.50
2019-04-20T13:44:40.989Z,23.50
2019-04-20T13:47:09.657Z,23.60
2019-04-20T13:49:38.876Z,23.40
2019-04-20T13:52:08.671Z,23.30
2019-04-20T13:54:37.986Z,23.50
2019-04-20T13:57:08.427Z,23.60
2019-04-20T13:59:39.619Z,23.60
2019-04-20T14:02:12.932Z,23.80
2019-04-20T14:04:44.488Z,23.60
2019-04-20T14:07:15.907Z,23.40
2019-04-20T14:09:45.587Z,23.40
2019-04-20T14:12:23.300Z,23.30
2019-04-20T14:14:44.653Z,23.20
2019-04-20T14:17:13.322Z,23.30
2019-04-20T14:19:43.135Z,23.40
2019-04-20T14:22:13.119Z,23.50
2019-04-20T14:24:42.696Z,23.60
2019-04-20T14:27:12.856Z,23.50
2019-04-20T14:29:43.105Z,23.20
2019-04-20T14:32:12.050Z,23.20
2019-04-20T14:34:40.867Z,23.20
2019-04-20T14:37:10.896Z,23.10
2019-04-20T14:39:40.556Z,23.00
2019-04-20T14:42:10.000Z,22.70
2019-04-20T14:44:39.621Z,22.70
2019-04-20T14:47:08.217Z,22.90
2019-04-20T14:49:36.862Z,23.00
2019-04-20T14:52:06.377Z,23.10
2019-04-20T14:54:35.197Z,23.00
2019-04-20T14:57:03.807Z,22.90
2019-04-20T14:59:33.992Z,22.80
2019-04-20T15:02:08.561Z,22.80
2019-04-20T15:04:37.276Z,22.80
2019-04-20T15:07:06.658Z,22.70
2019-04-20T15:09:38.752Z,22.80
2019-04-20T15:12:06.810Z,23.00
2019-04-20T15:14:36.730Z,22.80
2019-04-20T15:17:06.803Z,22.60
2019-04-20T15:19:37.219Z,22.50
2019-04-20T15:22:07.551Z,22.50
2019-04-20T15:24:37.588Z,22.60
2019-04-20T15:27:06.695Z,22.70
2019-04-20T15:29:36.046Z,22.70
2019-04-20T15:32:05.960Z,22.80
2019-04-20T15:34:35.072Z,22.60
2019-04-20T15:37:04.398Z,22.40
2019-04-20T15:39:34.911Z,22.30
2019-04-20T15:42:07.403Z,22.30
2019-04-20T15:44:37.457Z,22.20
2019-04-20T15:47:07.408Z,22.30
2019-04-20T15:49:37.692Z,22.20
2019-04-20T15:52:08.094Z,22.30
2019-04-20T15:54:37.823Z,22.20
2019-04-20T15:57:12.794Z,22.30
2019-04-20T15:59:38.214Z,22.20
2019-04-20T16:02:13.448Z,22.10
2019-04-20T16:05:00.636Z,22.10
2019-04-20T16:07:37.486Z,22.10
2019-04-20T16:10:01.149Z,22.10
2019-04-20T16:12:31.108Z,22.00
2019-04-20T16:15:01.983Z,22.00
2019-04-20T16:17:38.122Z,21.90
2019-04-20T16:20:10.325Z,21.80
2019-04-20T16:22:36.526Z,21.80
2019-04-20T16:25:23.500Z,21.70
2019-04-20T16:27:53.842Z,21.60
2019-04-20T16:30:23.341Z,21.50
2019-04-20T16:32:52.552Z,21.40
2019-04-20T16:35:22.476Z,21.30
2019-04-20T16:37:52.639Z,21.30
2019-04-20T16:40:21.319Z,21.30
2019-04-20T16:42:50.302Z,21.30
2019-04-20T16:45:19.200Z,21.30
2019-04-20T16:47:48.246Z,21.20
2019-04-20T16:50:17.202Z,21.10
2019-04-20T16:52:46.566Z,21.00
2019-04-20T16:55:16.603Z,21.00
2019-04-20T16:57:47.876Z,20.90
2019-04-20T17:00:17.934Z,20.80
2019-04-20T17:02:47.899Z,20.80
2019-04-20T17:05:16.895Z,20.70
2019-04-20T17:07:48.897Z,20.70
2019-04-20T17:10:18.367Z,20.50
2019-04-20T17:12:48.046Z,20.40
2019-04-20T17:15:17.349Z,20.30
2019-04-20T17:17:48.148Z,20.30
2019-04-20T17:20:17.738Z,20.30
2019-04-20T17:22:46.455Z,20.30
2019-04-20T17:25:16.329Z,20.20
2019-04-20T17:27:53.070Z,20.20
2019-04-20T17:30:26.944Z,20.00
2019-04-20T17:32:57.892Z,19.90
2019-04-20T17:35:40.623Z,19.80
2019-04-20T17:37:58.382Z,19.70
2019-04-20T17:40:46.055Z,19.60
2019-04-20T17:43:06.498Z,19.50
2019-04-20T17:45:38.883Z,19.40
2019-04-20T17:48:14.458Z,19.20
2019-04-20T17:50:47.794Z,19.10
2019-04-20T17:53:14.425Z,18.90
2019-04-20T17:55:48.267Z,18.90
2019-04-20T17:58:21.047Z,18.90
2019-04-20T18:00:58.583Z,18.80
2019-04-20T18:04:03.236Z,18.60
2019-04-20T18:06:20.276Z,18.50
2019-04-20T18:08:49.549Z,18.40
2019-04-20T18:11:10.978Z,18.30
2019-04-20T18:13:34.357Z,18.30
2019-04-20T18:16:29.675Z,18.20
2019-04-20T18:19:02.013Z,18.10
2019-04-20T18:21:26.764Z,18.00
2019-04-20T18:23:56.258Z,18.00
2019-04-20T18:26:45.482Z,17.90
2019-04-20T18:29:15.019Z,17.80
2019-04-20T18:31:31.302Z,17.70
2019-04-20T18:34:07.030Z,17.60
2019-04-20T18:36:37.890Z,17.60
2019-04-20T18:39:07.749Z,17.60
2019-04-20T18:41:38.497Z,17.50
2019-04-20T18:44:04.412Z,17.50
2019-04-20T18:46:58.731Z,17.50
2019-04-20T18:49:18.210Z,17.40
2019-04-20T18:51:33.943Z,17.30
2019-04-20T18:54:08.524Z,17.20
2019-04-20T18:56:39.679Z,17.00
2019-04-20T18:59:03.130Z,17.00
2019-04-20T19:01:34.927Z,16.90
2019-04-20T19:04:03.670Z,16.90
2019-04-20T19:06:32.345Z,16.80
2019-04-20T19:09:00.960Z,16.70
2019-04-20T19:11:30.888Z,16.50
2019-04-20T19:14:15.891Z,16.40
2019-04-20T19:16:53.834Z,16.10
2019-04-20T19:19:21.779Z,15.80
2019-04-20T19:21:41.083Z,15.60
2019-04-20T19:24:13.283Z,15.40
2019-04-20T19:26:44.946Z,15.10
2019-04-20T19:29:19.081Z,14.90
2019-04-20T19:31:56.887Z,14.70
2019-04-20T19:34:28.953Z,14.60
2019-04-20T19:36:53.404Z,14.40
2019-04-20T19:39:26.007Z,14.20
2019-04-20T19:41:51.745Z,14.10
2019-04-20T19:44:21.313Z,14.00
2019-04-20T19:47:08.519Z,13.90
2019-04-20T19:49:25.292Z,13.80
2019-04-20T19:52:15.959Z,13.60
2019-04-20T19:54:34.489Z,13.50
2019-04-20T19:56:58.294Z,13.50
2019-04-20T19:59:23.325Z,13.40
2019-04-20T20:01:45.333Z,13.40
2019-04-20T20:04:15.551Z,13.30
2019-04-20T20:06:49.691Z,13.30
2019-04-20T20:09:16.425Z,13.20
2019-04-20T20:11:46.427Z,13.00
2019-04-20T20:14:19.499Z,12.90
2019-04-20T20:17:06.672Z,12.70
2019-04-20T20:19:32.375Z,12.70
2019-04-20T20:22:00.244Z,12.70
2019-04-20T20:24:17.519Z,12.60
2019-04-20T20:26:53.403Z,12.60
2019-04-20T20:29:27.683Z,12.50
2019-04-20T20:32:03.387Z,12.50
2019-04-20T20:34:26.453Z,12.40
2019-04-20T20:36:56.017Z,12.40
2019-04-20T20:39:24.167Z,12.40
2019-04-20T20:42:00.542Z,12.50
2019-04-20T20:44:36.036Z,12.50
2019-04-20T20:47:03.498Z,12.50
2019-04-20T20:49:38.361Z,12.60
2019-04-20T20:52:10.159Z,12.70
2019-04-20T20:54:33.697Z,12.60
2019-04-20T20:56:59.507Z,12.50
2019-04-20T20:59:34.748Z,12.20
2019-04-20T21:02:03.645Z,12.00
2019-04-20T21:04:21.611Z,12.00
2019-04-20T21:06:50.898Z,11.90
2019-04-20T21:09:20.766Z,11.70
2019-04-20T21:11:57.216Z,11.60
2019-04-20T21:14:26.070Z,11.60
2019-04-20T21:17:00.328Z,11.60
2019-04-20T21:19:35.531Z,11.50
2019-04-20T21:22:01.040Z,11.50
2019-04-20T21:24:23.729Z,11.40
2019-04-20T21:26:53.832Z,11.30
2019-04-20T21:29:31.534Z,11.30
2019-04-20T21:32:01.629Z,11.10
2019-04-20T21:34:25.529Z,10.90
2019-04-20T21:37:01.574Z,10.90
2019-04-20T21:39:35.066Z,10.80
2019-04-20T21:42:01.497Z,10.90
2019-04-20T21:44:29.376Z,10.90
2019-04-20T21:46:56.718Z,10.90
2019-04-20T21:49:38.826Z,10.90
2019-04-20T21:52:01.640Z,10.80
2019-04-20T21:54:25.747Z,10.60
2019-04-20T21:57:00.050Z,10.50
2019-04-20T21:59:32.124Z,10.40
2019-04-20T22:02:04.370Z,10.30
2019-04-20T22:04:27.085Z,10.20
2019-04-20T22:06:56.227Z,10.10
2019-04-20T22:09:32.208Z,10.00
2019-04-20T22:11:56.069Z,9.90
2019-04-20T22:14:27.924Z,9.50
2019-04-20T22:16:57.478Z,9.40
2019-04-20T22:19:36.637Z,9.30
2019-04-20T22:22:09.006Z,9.30
2019-04-20T22:24:41.958Z,9.30
2019-04-20T22:27:07.787Z,9.30
2019-04-20T22:29:26.590Z,9.30
2019-04-20T22:32:02.784Z,9.30
2019-04-20T22:34:28.086Z,9.30
2019-04-20T22:36:58.022Z,9.10
2019-04-20T22:39:32.207Z,9.00
2019-04-20T22:42:04.948Z,9.00
2019-04-20T22:44:31.048Z,8.90
2019-04-20T22:47:00.483Z,8.80
2019-04-20T22:49:44.245Z,8.70
2019-04-20T22:52:13.142Z,8.60
2019-04-20T22:54:44.689Z,8.50
2019-04-20T22:57:11.891Z,8.40
2019-04-20T22:59:38.358Z,8.30
2019-04-20T23:02:02.481Z,8.10
2019-04-20T23:04:30.928Z,8.10
2019-04-20T23:07:00.912Z,8.00
2019-04-20T23:09:32.754Z,7.90
2019-04-20T23:12:06.828Z,7.90
2019-04-20T23:14:30.322Z,7.90
2019-04-20T23:16:59.832Z,8.00
2019-04-20T23:19:36.632Z,8.10
2019-04-20T23:22:03.103Z,8.10
2019-04-20T23:24:29.217Z,8.10
2019-04-20T23:26:57.822Z,8.00
2019-04-20T23:29:30.845Z,8.00
2019-04-20T23:32:01.145Z,7.90
2019-04-20T23:34:30.376Z,7.80
2019-04-20T23:36:57.127Z,7.60
2019-04-20T23:39:30.110Z,7.60
2019-04-20T23:42:00.578Z,7.70
2019-04-20T23:44:54.163Z,7.90
2019-04-20T23:47:22.363Z,7.70
2019-04-20T23:50:11.239Z,7.50
2019-04-20T23:52:43.183Z,7.30
2019-04-20T23:54:58.897Z,7.20
2019-04-20T23:57:23.916Z,7.10
2019-04-20T23:59:53.786Z,6.90
